Time;durP1;ratioP1;P1;durP2;ratioP2;P2;SDS_P1;SDS_P2;PMS_P1;PMS_P2;Temp;Humidity;BMP_temperature;BMP_pressure;BME280_temperature;BME280_humidity;BME280_pressure;Samples;Min_cycle;Max_cycle;Signal;HPM_P1;HPM_P2
2021/10/11 00:01:25;;;;;;;9.10;3.67;;;;;;;10.75;100.00;102794.97;4946345;28;20138;-68
2021/10/11 00:03:53;;;;;;;9.73;3.10;;;;;;;10.83;100.00;102805.66;4949740;28;20058;-68
2021/10/11 00:06:22;;;;;;;11.73;3.20;;;;;;;10.93;100.00;102799.41;4952994;28;20054;-68
2021/10/11 00:08:51;;;;;;;13.68;3.17;;;;;;;10.92;100.00;102802.06;4951853;28;20073;-68
2021/10/11 00:11:19;;;;;;;9.68;2.67;;;;;;;10.97;100.00;102801.16;4955871;28;20059;-68
2021/10/11 00:13:48;;;;;;;7.85;3.30;;;;;;;10.98;100.00;102794.94;4946002;28;20514;-68
2021/10/11 00:16:16;;;;;;;8.15;3.10;;;;;;;11.02;100.00;102806.50;4950993;28;20082;-68
2021/10/11 00:19:08;;;;;;;8.00;2.40;;;;;;;11.00;100.00;102803.81;4946696;28;20070;-67
2021/10/11 00:22:01;;;;;;;9.10;2.78;;;;;;;11.00;100.00;102805.63;4953576;28;20768;-67
2021/10/11 00:24:30;;;;;;;6.43;2.30;;;;;;;11.00;100.00;102809.16;4945538;28;20050;-67
2021/10/11 00:26:58;;;;;;;8.18;2.55;;;;;;;11.08;100.00;102810.94;4949435;28;20054;-68
2021/10/11 00:29:25;;;;;;;9.05;2.70;;;;;;;11.14;100.00;102808.25;4949637;28;20090;-68
2021/10/11 00:31:53;;;;;;;8.30;2.70;;;;;;;11.21;100.00;102794.84;4949296;28;20436;-67
2021/10/11 00:34:21;;;;;;;14.30;4.35;;;;;;;11.26;100.00;102791.28;4949716;28;20054;-67
2021/10/11 00:36:49;;;;;;;12.10;3.35;;;;;;;11.28;100.00;102795.72;4943471;28;20122;-67
2021/10/11 00:39:17;;;;;;;9.07;2.33;;;;;;;11.29;100.00;102789.50;4949100;28;20085;-67
2021/10/11 00:41:47;;;;;;;13.75;2.83;;;;;;;11.26;100.00;102788.63;4950243;28;20159;-67
2021/10/11 00:44:17;;;;;;;13.73;2.70;;;;;;;11.23;100.00;102799.31;4949753;28;20412;-68
2021/10/11 00:46:45;;;;;;;12.55;2.67;;;;;;;11.26;100.00;102789.50;4956352;28;20053;-69
2021/10/11 00:49:14;;;;;;;10.60;3.08;;;;;;;11.21;100.00;102788.63;4947686;28;20073;-67
2021/10/11 00:51:42;;;;;;;13.25;4.00;;;;;;;11.12;100.00;102786.88;4949896;28;20082;-67
2021/10/11 00:54:11;;;;;;;8.05;2.58;;;;;;;11.03;100.00;102795.81;4944288;28;20440;-67
2021/10/11 00:56:38;;;;;;;11.98;2.60;;;;;;;10.99;100.00;102798.50;4945663;28;20130;-67
2021/10/11 00:59:08;;;;;;;5.93;2.25;;;;;;;10.87;100.00;102801.19;4948343;28;20416;-67
2021/10/11 01:01:36;;;;;;;9.15;3.00;;;;;;;10.78;100.00;102805.66;4946564;28;20560;-68
2021/10/11 01:04:06;;;;;;;10.07;2.20;;;;;;;10.73;100.00;102806.56;4953557;28;20097;-68
2021/10/11 01:06:37;;;;;;;11.77;2.90;;;;;;;10.63;100.00;102801.22;4944318;28;20094;-68
2021/10/11 01:09:05;;;;;;;7.00;2.58;;;;;;;10.55;100.00;102804.78;4946997;28;20050;-68
2021/10/11 01:11:34;;;;;;;8.15;2.00;;;;;;;10.47;100.00;102804.78;4945157;28;20080;-68
2021/10/11 01:14:01;;;;;;;11.38;2.67;;;;;;;10.39;100.00;102802.13;4948207;28;20505;-68
2021/10/11 01:16:31;;;;;;;10.95;2.70;;;;;;;10.32;100.00;102800.34;4950506;28;20219;-68
2021/10/11 01:19:03;;;;;;;10.32;2.40;;;;;;;10.26;100.00;102806.53;4948061;28;20056;-67
2021/10/11 01:21:32;;;;;;;9.63;2.22;;;;;;;10.18;100.00;102803.00;4950355;28;20058;-68
2021/10/11 01:24:00;;;;;;;10.55;2.60;;;;;;;10.06;100.00;102798.53;4943705;28;20088;-68
2021/10/11 01:26:36;;;;;;;9.25;2.60;;;;;;;9.95;100.00;102794.06;4947396;28;20176;-68
2021/10/11 01:29:05;;;;;;;15.43;3.75;;;;;;;9.87;100.00;102802.03;4943310;28;20139;-69
2021/10/11 01:31:33;;;;;;;10.63;2.85;;;;;;;9.80;100.00;102805.59;4947990;28;20067;-67
2021/10/11 01:34:02;;;;;;;8.20;2.38;;;;;;;9.71;100.00;102812.66;4948219;28;20048;-67
2021/10/11 01:36:41;;;;;;;9.00;2.95;;;;;;;9.62;100.00;102812.66;4947605;28;20078;-68
2021/10/11 01:39:10;;;;;;;4.47;1.88;;;;;;;9.54;100.00;102811.72;4949234;28;20085;-72
2021/10/11 01:41:39;;;;;;;8.18;2.50;;;;;;;9.44;100.00;102805.47;4945792;28;20398;-71
2021/10/11 01:44:07;;;;;;;8.43;2.30;;;;;;;9.43;100.00;102808.13;4946900;28;20204;-71
2021/10/11 01:46:36;;;;;;;9.35;2.67;;;;;;;9.37;100.00;102797.47;4948830;28;20443;-72
2021/10/11 01:49:07;;;;;;;8.43;2.85;;;;;;;9.30;100.00;102805.41;4946689;28;20190;-72
2021/10/11 01:51:36;;;;;;;13.20;4.43;;;;;;;9.23;100.00;102802.69;4952867;28;20093;-72
2021/10/11 01:54:04;;;;;;;11.32;3.85;;;;;;;9.17;100.00;102808.88;4941773;28;20049;-71
2021/10/11 01:56:32;;;;;;;11.23;4.78;;;;;;;9.12;100.00;102806.19;4950301;28;20271;-72
2021/10/11 01:58:59;;;;;;;13.63;3.25;;;;;;;9.05;100.00;102792.84;4944557;28;20054;-71
2021/10/11 02:01:27;;;;;;;12.63;2.80;;;;;;;9.01;100.00;102799.03;4948391;28;20046;-72
2021/10/11 02:03:55;;;;;;;8.00;2.28;;;;;;;8.93;100.00;102799.88;4951460;28;20050;-71
2021/10/11 02:06:23;;;;;;;9.10;3.03;;;;;;;8.89;100.00;102802.53;4944805;28;20369;-72
2021/10/11 02:08:52;;;;;;;10.70;2.80;;;;;;;8.83;100.00;102802.50;4949508;28;20046;-72
2021/10/11 02:11:20;;;;;;;6.55;2.20;;;;;;;8.76;100.00;102794.44;4945448;28;20130;-73
2021/10/11 02:13:48;;;;;;;9.07;2.42;;;;;;;8.68;100.00;102795.28;4947653;28;20078;-72
2021/10/11 02:16:16;;;;;;;7.07;2.25;;;;;;;8.59;100.00;102797.00;4944602;28;20078;-71
2021/10/11 02:18:44;;;;;;;12.88;3.65;;;;;;;8.55;100.00;102797.84;4949089;28;20089;-72
2021/10/11 02:21:12;;;;;;;9.55;2.55;;;;;;;8.49;100.00;102804.91;4949579;28;20512;-72
2021/10/11 02:23:40;;;;;;;6.53;2.20;;;;;;;8.45;100.00;102801.31;4944596;28;20130;-72
2021/10/11 02:26:10;;;;;;;9.05;2.75;;;;;;;8.40;100.00;102795.03;4949758;28;20126;-72
2021/10/11 02:28:38;;;;;;;6.95;2.38;;;;;;;8.38;100.00;102797.69;4944949;28;20812;-72
2021/10/11 02:31:06;;;;;;;5.28;2.35;;;;;;;8.38;100.00;102800.34;4948773;28;20133;-72
2021/10/11 02:33:58;;;;;;;9.18;3.60;;;;;;;8.32;100.00;102789.66;4943630;28;20066;-72
2021/10/11 02:36:26;;;;;;;28.48;11.48;;;;;;;8.28;100.00;102785.19;4945275;28;20055;-72
2021/10/11 02:38:54;;;;;;;21.30;9.30;;;;;;;8.25;100.00;102785.16;4946759;28;20135;-72
2021/10/11 02:41:23;;;;;;;12.70;4.10;;;;;;;8.22;100.00;102774.50;4944322;28;20142;-72
2021/10/11 02:43:52;;;;;;;9.45;2.58;;;;;;;8.23;100.00;102777.16;4949702;28;20539;-73
2021/10/11 02:46:20;;;;;;;14.85;3.42;;;;;;;8.22;100.00;102769.16;4946274;28;20102;-73
2021/10/11 02:48:48;;;;;;;9.65;2.55;;;;;;;8.21;100.00;102770.06;4955061;28;20051;-73
2021/10/11 02:51:17;;;;;;;9.88;2.85;;;;;;;8.19;100.00;102763.84;4952938;28;20053;-71
2021/10/11 02:53:49;;;;;;;7.05;2.25;;;;;;;8.14;100.00;102763.81;4950963;28;20062;-71
2021/10/11 02:56:17;;;;;;;5.55;1.85;;;;;;;8.13;100.00;102766.44;4949693;28;20130;-72
2021/10/11 02:58:48;;;;;;;10.18;2.28;;;;;;;8.04;100.00;102764.59;4949416;28;20062;-71
2021/10/11 03:01:16;;;;;;;5.10;1.90;;;;;;;7.98;100.00;102754.78;4948546;28;20563;-67
2021/10/11 03:03:45;;;;;;;12.10;2.45;;;;;;;7.94;100.00;102768.06;4950649;28;20408;-68
2021/10/11 03:06:13;;;;;;;5.30;1.95;;;;;;;7.90;100.00;102755.59;4955653;28;20146;-71
2021/10/11 03:08:41;;;;;;;8.80;2.10;;;;;;;7.86;100.00;102760.88;4949753;28;20090;-72
2021/10/11 03:11:08;;;;;;;5.60;2.08;;;;;;;7.82;100.00;102759.06;4949549;28;20166;-71
2021/10/11 03:13:36;;;;;;;9.00;2.42;;;;;;;7.82;100.00;102763.50;4947803;28;20130;-72
2021/10/11 03:16:06;;;;;;;7.18;2.55;;;;;;;7.83;100.00;102762.59;4947739;28;20110;-72
2021/10/11 03:18:34;;;;;;;7.43;2.47;;;;;;;7.81;100.00;102764.38;4947940;28;20856;-71
2021/10/11 03:21:01;;;;;;;11.75;2.47;;;;;;;7.82;100.00;102761.72;4951704;28;20086;-72
2021/10/11 03:23:29;;;;;;;6.93;2.15;;;;;;;7.82;100.00;102768.81;4956813;28;20146;-72
2021/10/11 03:25:57;;;;;;;9.23;2.45;;;;;;;7.85;100.00;102761.75;4948068;28;20071;-72
2021/10/11 03:28:25;;;;;;;12.57;2.30;;;;;;;7.88;100.00;102752.91;4947731;28;20078;-72
2021/10/11 03:30:53;;;;;;;10.00;2.30;;;;;;;7.95;100.00;102756.53;4948206;28;20078;-72
2021/10/11 03:33:22;;;;;;;7.50;2.60;;;;;;;7.99;100.00;102759.22;4949233;28;20054;-71
2021/10/11 03:35:50;;;;;;;9.52;1.98;;;;;;;8.02;100.00;102755.72;4948797;28;20138;-72
2021/10/11 03:38:18;;;;;;;6.47;1.90;;;;;;;8.08;100.00;102762.84;4953970;28;21004;-72
2021/10/11 03:41:11;;;;;;;9.40;2.55;;;;;;;8.16;100.00;102745.22;4954222;28;20401;-72
2021/10/11 03:44:05;;;;;;;5.38;1.80;;;;;;;8.22;100.00;102753.22;4951016;28;20501;-72
2021/10/11 03:46:34;;;;;;;7.32;2.00;;;;;;;8.28;100.00;102768.34;4946917;28;20055;-72
2021/10/11 03:49:04;;;;;;;9.38;2.25;;;;;;;8.31;100.00;102760.38;4949784;28;20189;-72
2021/10/11 03:51:32;;;;;;;7.82;1.85;;;;;;;8.40;100.00;102756.03;4946456;28;20054;-72
2021/10/11 03:54:24;;;;;;;8.43;2.25;;;;;;;8.45;100.00;102750.78;4949062;28;20085;-72
2021/10/11 03:56:56;;;;;;;6.93;2.70;;;;;;;8.48;100.00;102750.81;4948159;28;20059;-72
2021/10/11 03:59:23;;;;;;;4.65;1.90;;;;;;;8.51;100.00;102756.16;4949936;28;20051;-72
2021/10/11 04:01:52;;;;;;;9.93;2.05;;;;;;;8.53;100.00;102749.06;4953859;28;20412;-73
2021/10/11 04:04:22;;;;;;;6.90;1.90;;;;;;;8.59;100.00;102746.44;4947018;28;20094;-71
2021/10/11 04:06:51;;;;;;;5.30;2.03;;;;;;;8.59;100.00;102746.44;4948496;28;20145;-73
2021/10/11 04:09:26;;;;;;;8.52;2.28;;;;;;;8.65;100.00;102758.91;4948921;28;20070;-72
2021/10/11 04:11:54;;;;;;;7.03;2.20;;;;;;;8.71;100.00;102768.69;4949267;28;20497;-73
2021/10/11 04:14:24;;;;;;;8.50;2.50;;;;;;;8.74;100.00;102761.63;4948298;28;20508;-73
2021/10/11 04:16:52;;;;;;;6.18;2.33;;;;;;;8.76;100.00;102765.16;4953989;28;20050;-72
2021/10/11 04:19:23;;;;;;;12.93;2.30;;;;;;;8.79;100.00;102765.19;4947482;28;20715;-72
2021/10/11 04:21:51;;;;;;;10.77;2.40;;;;;;;8.85;100.00;102768.78;4949773;28;20514;-69
2021/10/11 04:24:19;;;;;;;5.30;2.13;;;;;;;8.87;100.00;102778.56;4945226;28;20066;-69
2021/10/11 04:26:50;;;;;;;7.80;2.63;;;;;;;8.90;100.00;102769.69;4945358;28;20091;-71
2021/10/11 04:29:18;;;;;;;6.38;2.25;;;;;;;8.90;100.00;102767.03;4947930;28;20082;-69
2021/10/11 04:31:46;;;;;;;9.18;2.53;;;;;;;8.93;100.00;102764.38;4952046;28;21077;-73
2021/10/11 04:34:15;;;;;;;5.45;2.08;;;;;;;8.96;100.00;102759.97;4949496;28;20062;-73
2021/10/11 04:36:44;;;;;;;7.60;2.20;;;;;;;8.97;100.00;102751.09;4947435;28;20043;-73
2021/10/11 04:39:12;;;;;;;5.82;2.20;;;;;;;9.00;100.00;102747.56;4945652;28;20070;-72
2021/10/11 04:41:40;;;;;;;6.38;2.35;;;;;;;9.05;100.00;102750.25;4946641;28;20290;-74
2021/10/11 04:44:11;;;;;;;7.70;2.65;;;;;;;9.04;100.00;102744.03;4948194;28;20051;-73
2021/10/11 04:46:39;;;;;;;7.85;2.25;;;;;;;9.08;100.00;102744.94;4949395;28;20248;-73
2021/10/11 04:49:12;;;;;;;7.10;2.13;;;;;;;9.07;100.00;102741.38;4954361;28;20101;-73
2021/10/11 04:51:40;;;;;;;11.23;3.30;;;;;;;9.09;100.00;102739.63;4950985;28;20658;-73
2021/10/11 04:54:10;;;;;;;9.30;2.40;;;;;;;9.10;100.00;102736.06;4947160;28;20310;-72
2021/10/11 04:56:38;;;;;;;10.98;3.00;;;;;;;9.14;100.00;102742.28;4949302;28;21813;-72
2021/10/11 04:59:06;;;;;;;10.60;2.17;;;;;;;9.14;100.00;102735.22;4949247;28;20082;-69
2021/10/11 05:01:34;;;;;;;5.70;2.30;;;;;;;9.18;100.00;102735.19;4946502;28;20043;-70
2021/10/11 05:04:05;;;;;;;8.13;2.47;;;;;;;9.19;100.00;102742.31;4952529;28;20527;-70
2021/10/11 05:06:57;;;;;;;13.50;2.92;;;;;;;9.21;100.00;102752.09;4952998;28;20050;-70
2021/10/11 05:09:26;;;;;;;9.40;2.50;;;;;;;9.22;100.00;102751.19;4944038;28;20063;-67
2021/10/11 05:11:54;;;;;;;6.75;2.60;;;;;;;9.25;100.00;102751.22;4944184;28;20514;-70
2021/10/11 05:14:22;;;;;;;9.25;2.53;;;;;;;9.26;100.00;102762.75;4946335;28;20113;-69
2021/10/11 05:16:50;;;;;;;7.40;2.28;;;;;;;9.28;100.00;102750.31;4943828;28;20047;-67
2021/10/11 05:19:24;;;;;;;8.55;2.70;;;;;;;9.30;100.00;102748.59;4945021;28;20567;-67
2021/10/11 05:21:54;;;;;;;9.82;3.58;;;;;;;9.32;100.00;102755.69;4950578;28;20086;-70
2021/10/11 05:24:24;;;;;;;10.15;2.67;;;;;;;9.34;100.00;102756.56;4949061;28;20082;-71
2021/10/11 05:26:54;;;;;;;9.77;3.35;;;;;;;9.37;100.00;102747.72;4944252;28;20122;-70
2021/10/11 05:29:22;;;;;;;9.68;2.92;;;;;;;9.38;100.00;102738.84;4945980;28;20444;-72
2021/10/11 05:31:52;;;;;;;15.38;3.20;;;;;;;9.43;100.00;102747.75;4942355;28;20133;-70
2021/10/11 05:34:22;;;;;;;8.23;2.67;;;;;;;9.41;100.00;102748.59;4946842;28;20303;-70
2021/10/11 05:36:50;;;;;;;7.57;2.80;;;;;;;9.42;100.00;102745.06;4946208;28;20458;-70
2021/10/11 05:39:19;;;;;;;5.45;2.22;;;;;;;9.42;100.00;102751.28;4951580;28;20071;-70
2021/10/11 05:41:50;;;;;;;5.22;2.30;;;;;;;9.41;100.00;102745.94;4946646;28;20062;-72
2021/10/11 05:44:19;;;;;;;7.50;2.20;;;;;;;9.38;100.00;102743.25;4944847;28;20745;-72
2021/10/11 05:46:49;;;;;;;12.38;2.90;;;;;;;9.36;100.00;102743.25;4944970;28;20056;-71
2021/10/11 05:49:18;;;;;;;8.48;3.08;;;;;;;9.36;100.00;102753.91;4943958;28;20539;-69
2021/10/11 05:51:46;;;;;;;8.50;3.00;;;;;;;9.32;100.00;102753.00;4943589;28;20750;-68
2021/10/11 05:54:15;;;;;;;15.00;3.35;;;;;;;9.31;100.00;102751.25;4950615;28;20133;-72
2021/10/11 05:56:43;;;;;;;8.65;3.03;;;;;;;9.28;100.00;102751.25;4944280;28;20043;-73
2021/10/11 05:59:13;;;;;;;10.65;3.55;;;;;;;9.27;100.00;102751.22;4944728;28;20109;-72
2021/10/11 06:01:42;;;;;;;11.50;3.50;;;;;;;9.22;100.00;102753.88;4944615;28;20086;-72
2021/10/11 06:04:10;;;;;;;11.90;4.10;;;;;;;9.19;100.00;102758.28;4946951;28;20529;-72
2021/10/11 06:06:38;;;;;;;7.93;3.83;;;;;;;9.14;100.00;102766.25;4943613;28;20054;-68
2021/10/11 06:09:06;;;;;;;12.30;4.22;;;;;;;9.13;100.00;102767.16;4945566;28;20046;-68
2021/10/11 06:11:58;;;;;;;9.68;4.10;;;;;;;9.12;100.00;102768.03;4947640;28;20097;-68
2021/10/11 06:14:26;;;;;;;8.98;3.53;;;;;;;9.11;100.00;102768.94;4946537;28;20051;-68
2021/10/11 06:16:55;;;;;;;11.40;3.75;;;;;;;9.10;100.00;102764.47;4945315;28;20232;-68
2021/10/11 06:19:23;;;;;;;9.18;3.67;;;;;;;9.09;100.00;102760.00;4946086;28;20137;-68
2021/10/11 06:21:51;;;;;;;8.40;3.47;;;;;;;9.12;100.00;102763.56;4946072;28;20093;-69
2021/10/11 06:24:22;;;;;;;12.07;4.47;;;;;;;9.10;100.00;102768.00;4942006;28;20061;-69
2021/10/11 06:26:51;;;;;;;11.10;3.75;;;;;;;9.08;100.00;102769.78;4946505;28;20047;-72
2021/10/11 06:29:18;;;;;;;11.50;4.30;;;;;;;9.08;100.00;102774.22;4947259;28;20141;-73
2021/10/11 06:31:46;;;;;;;11.38;4.55;;;;;;;9.11;100.00;102779.59;4941738;28;20075;-73
2021/10/11 06:34:16;;;;;;;13.13;4.43;;;;;;;9.15;100.00;102773.38;4940636;28;20219;-73
2021/10/11 06:37:09;;;;;;;15.80;4.38;;;;;;;9.16;100.00;102767.19;4941807;28;20416;-73
2021/10/11 06:40:02;;;;;;;11.07;3.83;;;;;;;9.15;100.00;102771.59;4947160;28;20076;-73
2021/10/11 06:42:46;;;;;;;11.43;3.90;;;;;;;9.19;100.00;102768.94;4947026;28;20463;-73
2021/10/11 06:45:14;;;;;;;11.07;4.13;;;;;;;9.23;100.00;102779.63;4940622;28;20077;-73
2021/10/11 06:48:06;;;;;;;9.95;3.53;;;;;;;9.25;100.00;102777.84;4945888;28;20225;-72
2021/10/11 06:51:00;;;;;;;12.00;4.40;;;;;;;9.29;100.00;102781.41;4946042;28;20637;-72
2021/10/11 06:53:27;;;;;;;9.20;3.70;;;;;;;9.32;100.00;102787.66;4942770;28;20131;-73
2021/10/11 06:55:55;;;;;;;10.55;4.10;;;;;;;9.35;100.00;102790.34;4950651;28;20065;-72
2021/10/11 06:58:23;;;;;;;10.18;4.38;;;;;;;9.41;100.00;102793.91;4943544;28;20083;-72
2021/10/11 07:00:52;;;;;;;13.60;4.25;;;;;;;9.47;100.00;102797.47;4944358;28;20545;-73
2021/10/11 07:03:23;;;;;;;11.88;4.25;;;;;;;9.54;100.00;102806.41;4945442;28;20152;-73
2021/10/11 07:05:51;;;;;;;10.80;3.95;;;;;;;9.61;100.00;102801.97;4945071;28;20055;-73
2021/10/11 07:08:21;;;;;;;10.57;3.97;;;;;;;9.70;100.00;102802.00;4941146;28;20055;-73
2021/10/11 07:10:53;;;;;;;8.02;3.70;;;;;;;9.77;100.00;102790.44;4952978;28;20479;-72
2021/10/11 07:13:21;;;;;;;11.80;4.07;;;;;;;9.86;100.00;102786.94;4944677;28;20062;-72
2021/10/11 07:16:13;;;;;;;12.65;4.22;;;;;;;9.96;100.00;102804.75;4945581;28;20062;-72
2021/10/11 07:18:41;;;;;;;15.20;4.20;;;;;;;10.02;100.00;102807.41;4942383;28;20242;-73
2021/10/11 07:21:09;;;;;;;11.07;3.88;;;;;;;10.07;100.00;102794.06;4945770;28;20405;-72
2021/10/11 07:23:38;;;;;;;7.53;3.55;;;;;;;10.14;100.00;102800.31;4945571;28;20106;-72
2021/10/11 07:26:08;;;;;;;9.88;3.53;;;;;;;10.21;100.00;102810.97;4945701;28;20097;-72
2021/10/11 07:28:36;;;;;;;9.07;3.25;;;;;;;10.29;100.00;102811.88;4946066;28;20055;-73
2021/10/11 07:31:04;;;;;;;13.13;3.47;;;;;;;10.38;100.00;102812.81;4944369;28;20451;-72
2021/10/11 07:33:32;;;;;;;9.85;3.53;;;;;;;10.50;100.00;102814.59;4944229;28;20141;-72
2021/10/11 07:36:00;;;;;;;8.65;3.40;;;;;;;10.59;100.00;102818.16;4948282;28;20188;-71
2021/10/11 07:38:28;;;;;;;9.48;3.22;;;;;;;10.69;100.00;102826.13;4951362;28;23255;-72
2021/10/11 07:40:59;;;;;;;9.05;3.22;;;;;;;10.75;100.00;102828.81;4947494;28;20233;-74
2021/10/11 07:43:27;;;;;;;11.25;3.60;;;;;;;10.85;100.00;102825.22;4948992;28;20773;-73
2021/10/11 07:46:01;;;;;;;10.57;3.42;;;;;;;10.93;100.00;102825.19;4952330;28;20559;-73
2021/10/11 07:48:29;;;;;;;12.45;3.60;;;;;;;11.02;100.00;102831.41;4948764;28;20415;-73
2021/10/11 07:50:57;;;;;;;9.70;3.05;;;;;;;11.12;100.00;102826.06;4946424;28;20062;-74
2021/10/11 07:53:25;;;;;;;10.55;2.63;;;;;;;11.23;100.00;102829.59;4944467;28;20089;-73
2021/10/11 07:55:54;;;;;;;7.97;3.53;;;;;;;11.31;100.00;102830.44;4951691;28;20153;-73
2021/10/11 07:58:24;;;;;;;9.40;2.30;;;;;;;11.41;100.00;102836.66;4948623;28;20143;-73
2021/10/11 08:00:52;;;;;;;11.68;3.88;;;;;;;11.54;100.00;102832.13;4955608;28;20067;-73
2021/10/11 08:03:22;;;;;;;13.55;3.00;;;;;;;11.64;100.00;102828.53;4946646;28;20069;-73
2021/10/11 08:05:55;;;;;;;12.43;4.22;;;;;;;11.74;100.00;102832.94;4949575;28;20059;-72
2021/10/11 08:08:23;;;;;;;10.43;2.85;;;;;;;11.87;99.17;102836.44;4945674;28;20051;-73
2021/10/11 08:11:16;;;;;;;12.63;2.75;;;;;;;11.95;97.29;102837.31;4943596;28;20077;-73
2021/10/11 08:13:45;;;;;;;11.15;3.10;;;;;;;12.06;98.56;102839.03;4947322;28;20098;-72
2021/10/11 08:16:13;;;;;;;9.88;2.40;;;;;;;12.31;98.60;102826.38;4948089;28;20065;-72
2021/10/11 08:18:41;;;;;;;8.57;2.10;;;;;;;12.37;97.78;102833.47;4948789;28;20057;-72
2021/10/11 08:21:10;;;;;;;8.30;2.65;;;;;;;12.32;94.91;102838.84;4941925;28;20090;-73
2021/10/11 08:23:41;;;;;;;9.18;2.33;;;;;;;12.56;97.55;102835.06;4947984;28;20070;-69
2021/10/11 08:26:09;;;;;;;6.45;1.90;;;;;;;12.88;91.44;102845.47;4947168;28;20059;-69
2021/10/11 08:28:38;;;;;;;10.35;2.90;;;;;;;13.14;91.97;102846.13;4944928;28;20407;-68
2021/10/11 08:31:07;;;;;;;7.63;3.00;;;;;;;13.18;90.94;102850.56;4944325;28;20046;-69
2021/10/11 08:33:35;;;;;;;8.25;2.40;;;;;;;13.10;91.73;102842.59;4945973;28;21045;-69
2021/10/11 08:36:04;;;;;;;12.27;2.97;;;;;;;13.01;90.80;102842.72;4953849;28;20513;-68
2021/10/11 08:38:32;;;;;;;7.68;2.97;;;;;;;13.20;90.85;102844.28;4945604;28;20075;-68
2021/10/11 08:41:00;;;;;;;9.75;2.70;;;;;;;13.60;90.11;102841.16;4945395;28;20526;-68
2021/10/11 08:43:28;;;;;;;10.05;2.28;;;;;;;13.80;88.25;102846.22;4943540;28;20055;-68
2021/10/11 08:45:56;;;;;;;12.77;2.80;;;;;;;13.81;87.02;102837.28;4945699;28;20059;-68
2021/10/11 08:48:25;;;;;;;6.15;3.00;;;;;;;13.75;87.49;102840.03;4947375;28;20288;-69
2021/10/11 08:50:53;;;;;;;8.20;2.33;;;;;;;13.85;86.00;102842.63;4948096;28;20586;-74
2021/10/11 08:53:21;;;;;;;11.48;2.63;;;;;;;14.15;86.27;102834.09;4945534;28;20499;-72
2021/10/11 08:55:50;;;;;;;8.93;2.72;;;;;;;14.16;84.67;102827.81;4947808;28;20054;-71
2021/10/11 08:58:19;;;;;;;8.10;1.98;;;;;;;14.37;83.44;102823.03;4943644;28;20491;-72
2021/10/11 09:00:47;;;;;;;6.90;2.10;;;;;;;14.32;80.23;102824.88;4949483;28;20097;-72
2021/10/11 09:03:18;;;;;;;9.80;2.10;;;;;;;14.42;80.54;102823.84;4944786;28;20051;-72
2021/10/11 09:06:15;;;;;;;7.38;2.42;;;;;;;14.65;78.84;102827.97;4943882;28;20062;-72
2021/10/11 09:08:43;;;;;;;9.40;2.50;;;;;;;14.85;77.58;102832.97;4949235;28;20078;-72
2021/10/11 09:11:12;;;;;;;6.50;2.03;;;;;;;14.54;76.17;102838.84;4944274;28;20250;-72
2021/10/11 09:13:44;;;;;;;8.57;2.50;;;;;;;14.72;77.21;102846.63;4944885;28;20120;-72
2021/10/11 09:16:16;;;;;;;6.00;2.10;;;;;;;14.94;76.87;102839.03;4948123;28;21087;-73
2021/10/11 09:18:51;;;;;;;6.47;2.15;;;;;;;14.73;76.18;102836.78;4944222;28;20051;-72
2021/10/11 09:21:30;;;;;;;8.38;2.58;;;;;;;14.77;75.56;102835.78;4945513;28;20078;-72
2021/10/11 09:24:06;;;;;;;8.57;2.00;;;;;;;14.73;76.99;102847.53;4947369;28;20186;-72
2021/10/11 09:26:45;;;;;;;10.15;2.10;;;;;;;14.49;77.71;102852.38;4949051;28;20059;-72
2021/10/11 09:29:14;;;;;;;9.57;2.45;;;;;;;14.39;77.48;102846.25;4944417;28;20628;-73
2021/10/11 09:32:08;;;;;;;13.50;3.45;;;;;;;14.14;77.55;102858.28;4945264;28;20292;-72
2021/10/11 09:34:39;;;;;;;3.08;1.40;;;;;;;14.12;79.25;102852.94;4941787;28;20129;-72
2021/10/11 09:37:10;;;;;;;10.70;3.15;;;;;;;14.00;79.69;102854.00;4941888;28;20091;-73
2021/10/11 09:39:41;;;;;;;9.88;2.45;;;;;;;14.05;81.04;102845.91;4942768;28;20622;-72
2021/10/11 09:42:16;;;;;;;10.18;2.50;;;;;;;14.12;79.90;102852.94;4943855;28;20467;-72
2021/10/11 09:44:52;;;;;;;7.40;2.58;;;;;;;14.20;80.07;102852.84;4944598;28;20134;-72
2021/10/11 09:47:29;;;;;;;6.80;2.13;;;;;;;14.12;75.35;102857.44;4947844;28;20042;-72
2021/10/11 09:49:57;;;;;;;5.72;1.83;;;;;;;14.16;74.10;102854.66;4948957;28;20053;-71
2021/10/11 09:52:27;;;;;;;6.72;2.00;;;;;;;14.14;74.69;102861.84;4946386;28;20162;-71
2021/10/11 09:54:56;;;;;;;5.10;1.55;;;;;;;14.25;73.70;102864.41;4942980;28;20510;-71
2021/10/11 09:57:24;;;;;;;8.90;2.03;;;;;;;14.17;72.54;102844.81;4942785;28;20339;-71
2021/10/11 10:00:17;;;;;;;6.43;1.75;;;;;;;14.10;71.96;102854.75;4941972;28;20054;-71
2021/10/11 10:02:46;;;;;;;9.00;2.03;;;;;;;14.14;73.10;102856.47;4941651;28;20051;-71
2021/10/11 10:05:18;;;;;;;8.27;2.00;;;;;;;14.69;73.05;102857.44;4945721;28;20149;-72
2021/10/11 10:07:50;;;;;;;7.07;2.17;;;;;;;14.57;73.48;102852.22;4947336;28;20044;-71
2021/10/11 10:10:23;;;;;;;8.30;1.80;;;;;;;14.72;75.05;102852.00;4948098;28;20069;-73
2021/10/11 10:12:53;;;;;;;10.88;2.03;;;;;;;14.60;75.58;102848.66;4941573;28;20146;-71
2021/10/11 10:15:31;;;;;;;8.18;2.38;;;;;;;14.58;77.78;102859.38;4948786;28;20058;-67
2021/10/11 10:18:00;;;;;;;9.10;2.60;;;;;;;14.14;80.30;102853.78;4943703;28;20181;-68
2021/10/11 10:20:28;;;;;;;7.60;2.22;;;;;;;13.85;82.04;102866.75;4945249;28;20062;-68
2021/10/11 10:23:32;;;;;;;9.55;2.17;;;;;;;13.77;83.63;102866.84;4943639;28;20058;-69
2021/10/11 10:26:02;;;;;;;7.65;1.80;;;;;;;13.92;84.93;102863.06;4947642;28;20125;-69
2021/10/11 10:28:42;;;;;;;6.05;2.13;;;;;;;13.63;82.89;102867.03;4945317;28;20374;-68
2021/10/11 10:31:11;;;;;;;5.90;1.67;;;;;;;13.74;82.90;102854.38;4951623;28;20610;-69
2021/10/11 10:33:40;;;;;;;8.95;2.45;;;;;;;13.94;82.57;102853.19;4941566;28;20054;-68
2021/10/11 10:36:19;;;;;;;6.85;2.28;;;;;;;13.90;81.52;102857.72;4946514;28;20063;-68
2021/10/11 10:39:00;;;;;;;4.82;1.80;;;;;;;13.94;81.57;102856.75;4946361;28;20484;-69
2021/10/11 10:41:28;;;;;;;6.25;2.00;;;;;;;14.04;81.71;102859.34;4945332;28;20055;-69
2021/10/11 10:43:57;;;;;;;7.88;2.20;;;;;;;14.20;81.87;102856.41;4940961;28;20133;-68
2021/10/11 10:46:24;;;;;;;8.57;2.17;;;;;;;14.17;81.35;102848.38;4945451;28;20057;-71
2021/10/11 10:48:54;;;;;;;12.63;2.92;;;;;;;14.46;81.85;102851.53;4946457;28;20059;-71
2021/10/11 10:51:27;;;;;;;7.15;2.10;;;;;;;14.53;80.31;102854.06;4945365;28;20510;-72
2021/10/11 10:53:56;;;;;;;7.80;2.22;;;;;;;14.78;80.65;102853.69;4942598;28;20078;-69
2021/10/11 10:56:26;;;;;;;5.80;2.17;;;;;;;14.68;77.66;102846.72;4943557;28;20062;-69
2021/10/11 10:59:02;;;;;;;8.13;2.10;;;;;;;14.86;78.64;102845.47;4942655;28;20051;-69
2021/10/11 11:01:30;;;;;;;9.45;2.13;;;;;;;14.90;77.65;102848.09;4944642;28;20129;-67
2021/10/11 11:03:58;;;;;;;8.48;1.60;;;;;;;15.13;75.07;102849.47;4945544;28;20319;-67
2021/10/11 11:06:30;;;;;;;12.07;2.30;;;;;;;15.10;74.31;102841.44;4952565;28;20050;-70
2021/10/11 11:08:59;;;;;;;6.95;2.00;;;;;;;15.10;73.12;102846.81;4947806;28;20129;-73
2021/10/11 11:11:30;;;;;;;12.85;2.35;;;;;;;15.07;73.32;102844.22;4949905;28;20312;-72
2021/10/11 11:14:00;;;;;;;8.98;2.20;;;;;;;15.07;72.86;102838.84;4950167;28;20050;-68
2021/10/11 11:16:29;;;;;;;5.60;1.85;;;;;;;15.24;71.52;102839.38;4950779;28;20051;-68
2021/10/11 11:18:59;;;;;;;5.93;2.00;;;;;;;15.24;70.26;102852.84;4948181;28;20058;-67
2021/10/11 11:21:27;;;;;;;5.55;2.10;;;;;;;15.40;70.56;102847.16;4950172;28;20051;-67
2021/10/11 11:23:55;;;;;;;8.00;2.05;;;;;;;15.42;70.24;102848.00;4952528;28;20055;-67
2021/10/11 11:26:23;;;;;;;9.70;2.10;;;;;;;15.18;67.94;102842.19;4949227;28;20483;-69
2021/10/11 11:28:55;;;;;;;5.28;1.95;;;;;;;15.05;68.72;102851.41;4947897;28;20137;-69
2021/10/11 11:31:23;;;;;;;5.63;1.95;;;;;;;15.02;69.31;102846.97;4948013;28;20131;-70
2021/10/11 11:33:52;;;;;;;6.45;1.95;;;;;;;15.08;69.43;102846.84;4951168;28;20177;-69
2021/10/11 11:36:21;;;;;;;7.68;2.35;;;;;;;15.29;69.75;102839.31;4951662;28;20434;-73
2021/10/11 11:38:49;;;;;;;7.70;2.08;;;;;;;15.20;67.67;102847.53;4953025;28;20078;-72